Terminal Aerodrome Forecast
Issued by NWS

Home | Current Version | Previous Version | Text Only | Print | Product List | Glossary On
Versions: 1 2 3 4 5 6 7 8 9 10 11 12 13 14 15 16 17 18 19 20 21 22 23 24 25 26 27
000
FTUS41 KBUF 200902 AAB
TAFJHW
TAF AMD
KJHW 200902Z 2009/2106 15006KT 1/4SM FG OVC002
     FM201100 14005KT 2SM BR SCT006 BKN150
     FM201200 14007KT P6SM OVC120
     FM201500 15008KT 6SM -RA OVC035
     FM201800 16007KT 3SM -RA BR OVC007
     FM202300 20006KT 3SM -DZ BR OVC003
      AMD LTD TO CLD VIS AND WIND=

USA.gov is the U.S. government's official web portal to all federal, state and local government web resources and services.